sensor_id;sensor_type;location;lat;lon;timestamp;temperature;humidity
1592;DHT22;789;51.612;7.510;2022-08-25T00:01:47;25.60;1.00
1592;DHT22;789;51.612;7.510;2022-08-25T00:04:15;25.60;1.00
1592;DHT22;789;51.612;7.510;2022-08-25T00:06:43;25.60;1.00
1592;DHT22;789;51.612;7.510;2022-08-25T00:09:14;25.60;1.00
1592;DHT22;789;51.612;7.510;2022-08-25T00:11:42;25.60;1.00
1592;DHT22;789;51.612;7.510;2022-08-25T00:14:12;25.60;1.00
1592;DHT22;789;51.612;7.510;2022-08-25T00:16:40;25.60;1.00
1592;DHT22;789;51.612;7.510;2022-08-25T00:19:10;25.60;1.00
1592;DHT22;789;51.612;7.510;2022-08-25T00:21:37;25.50;1.00
1592;DHT22;789;51.612;7.510;2022-08-25T00:24:06;25.50;1.00
1592;DHT22;789;51.612;7.510;2022-08-25T00:26:37;25.50;1.00
1592;DHT22;789;51.612;7.510;2022-08-25T00:29:05;25.40;1.00
1592;DHT22;789;51.612;7.510;2022-08-25T00:31:35;25.40;1.00
1592;DHT22;789;51.612;7.510;2022-08-25T00:34:03;25.40;1.00
1592;DHT22;789;51.612;7.510;2022-08-25T00:36:32;25.30;1.00
1592;DHT22;789;51.612;7.510;2022-08-25T00:38:59;25.40;1.00
1592;DHT22;789;51.612;7.510;2022-08-25T00:41:25;25.30;1.00
1592;DHT22;789;51.612;7.510;2022-08-25T00:43:57;25.20;1.00
1592;DHT22;789;51.612;7.510;2022-08-25T00:46:27;25.20;1.00
1592;DHT22;789;51.612;7.510;2022-08-25T00:48:56;25.20;1.00
1592;DHT22;789;51.612;7.510;2022-08-25T00:51:29;25.10;1.00
1592;DHT22;789;51.612;7.510;2022-08-25T00:53:57;25.10;1.00
1592;DHT22;789;51.612;7.510;2022-08-25T00:56:24;25.00;1.00
1592;DHT22;789;51.612;7.510;2022-08-25T00:58:54;25.00;1.00
1592;DHT22;789;51.612;7.510;2022-08-25T01:01:21;25.00;1.00
1592;DHT22;789;51.612;7.510;2022-08-25T01:03:47;24.90;1.00
1592;DHT22;789;51.612;7.510;2022-08-25T01:06:14;24.90;1.00
1592;DHT22;789;51.612;7.510;2022-08-25T01:08:41;24.90;1.00
1592;DHT22;789;51.612;7.510;2022-08-25T01:11:09;24.80;1.00
1592;DHT22;789;51.612;7.510;2022-08-25T01:13:39;24.80;1.00
1592;DHT22;789;51.612;7.510;2022-08-25T01:16:08;24.70;1.00
1592;DHT22;789;51.612;7.510;2022-08-25T01:18:47;24.70;1.00
1592;DHT22;789;51.612;7.510;2022-08-25T01:21:18;24.60;1.00
1592;DHT22;789;51.612;7.510;2022-08-25T01:23:46;24.60;1.00
1592;DHT22;789;51.612;7.510;2022-08-25T01:26:15;24.60;1.00
1592;DHT22;789;51.612;7.510;2022-08-25T01:28:44;24.50;1.00
1592;DHT22;789;51.612;7.510;2022-08-25T01:31:25;24.50;1.00
1592;DHT22;789;51.612;7.510;2022-08-25T01:33:52;24.50;1.00
1592;DHT22;789;51.612;7.510;2022-08-25T01:36:21;24.40;1.00
1592;DHT22;789;51.612;7.510;2022-08-25T01:38:48;24.40;1.00
1592;DHT22;789;51.612;7.510;2022-08-25T01:41:16;24.40;1.00
1592;DHT22;789;51.612;7.510;2022-08-25T01:43:45;24.30;1.00
1592;DHT22;789;51.612;7.510;2022-08-25T01:46:12;24.40;1.00
1592;DHT22;789;51.612;7.510;2022-08-25T01:48:39;24.30;1.00
1592;DHT22;789;51.612;7.510;2022-08-25T01:51:05;24.30;1.00
1592;DHT22;789;51.612;7.510;2022-08-25T01:53:33;24.30;1.00
1592;DHT22;789;51.612;7.510;2022-08-25T01:56:07;24.30;1.00
1592;DHT22;789;51.612;7.510;2022-08-25T01:58:38;24.30;1.00
1592;DHT22;789;51.612;7.510;2022-08-25T02:01:07;24.30;1.00
1592;DHT22;789;51.612;7.510;2022-08-25T02:03:37;24.20;1.00
1592;DHT22;789;51.612;7.510;2022-08-25T02:06:05;24.10;1.00
1592;DHT22;789;51.612;7.510;2022-08-25T02:08:34;24.00;1.00
1592;DHT22;789;51.612;7.510;2022-08-25T02:11:01;24.00;1.00
1592;DHT22;789;51.612;7.510;2022-08-25T02:13:29;23.90;1.00
1592;DHT22;789;51.612;7.510;2022-08-25T02:15:57;23.80;1.00
1592;DHT22;789;51.612;7.510;2022-08-25T02:18:25;23.80;1.00
1592;DHT22;789;51.612;7.510;2022-08-25T02:20:51;23.80;1.00
1592;DHT22;789;51.612;7.510;2022-08-25T02:23:18;23.70;1.00
1592;DHT22;789;51.612;7.510;2022-08-25T02:25:46;23.70;1.00
1592;DHT22;789;51.612;7.510;2022-08-25T02:28:13;23.60;1.00
1592;DHT22;789;51.612;7.510;2022-08-25T02:30:41;23.60;1.00
1592;DHT22;789;51.612;7.510;2022-08-25T02:33:09;23.60;1.00
1592;DHT22;789;51.612;7.510;2022-08-25T02:35:36;23.60;1.00
1592;DHT22;789;51.612;7.510;2022-08-25T02:38:03;23.60;1.00
1592;DHT22;789;51.612;7.510;2022-08-25T02:40:30;23.60;1.00
1592;DHT22;789;51.612;7.510;2022-08-25T02:42:58;23.50;1.00
1592;DHT22;789;51.612;7.510;2022-08-25T02:45:25;23.60;1.00
1592;DHT22;789;51.612;7.510;2022-08-25T02:47:52;23.50;1.00
1592;DHT22;789;51.612;7.510;2022-08-25T02:50:19;23.50;1.00
1592;DHT22;789;51.612;7.510;2022-08-25T02:52:46;23.40;1.00
1592;DHT22;789;51.612;7.510;2022-08-25T02:55:16;23.40;1.00
1592;DHT22;789;51.612;7.510;2022-08-25T02:57:43;23.40;1.00
1592;DHT22;789;51.612;7.510;2022-08-25T03:00:13;23.40;1.00
1592;DHT22;789;51.612;7.510;2022-08-25T03:02:40;23.40;1.00
1592;DHT22;789;51.612;7.510;2022-08-25T03:05:09;23.40;1.00
1592;DHT22;789;51.612;7.510;2022-08-25T03:07:36;23.30;1.00
1592;DHT22;789;51.612;7.510;2022-08-25T03:10:05;23.30;1.00
1592;DHT22;789;51.612;7.510;2022-08-25T03:12:32;23.30;1.00
1592;DHT22;789;51.612;7.510;2022-08-25T03:14:58;23.30;1.00
1592;DHT22;789;51.612;7.510;2022-08-25T03:17:27;23.30;1.00
1592;DHT22;789;51.612;7.510;2022-08-25T03:19:54;23.30;1.00
1592;DHT22;789;51.612;7.510;2022-08-25T03:22:20;23.30;1.00
1592;DHT22;789;51.612;7.510;2022-08-25T03:24:47;23.20;1.00
1592;DHT22;789;51.612;7.510;2022-08-25T03:27:14;23.20;1.00
1592;DHT22;789;51.612;7.510;2022-08-25T03:29:40;23.20;1.00
1592;DHT22;789;51.612;7.510;2022-08-25T03:32:08;23.20;1.00
1592;DHT22;789;51.612;7.510;2022-08-25T03:34:36;23.20;1.00
1592;DHT22;789;51.612;7.510;2022-08-25T03:37:04;23.20;1.00
1592;DHT22;789;51.612;7.510;2022-08-25T03:39:33;23.10;1.00
1592;DHT22;789;51.612;7.510;2022-08-25T03:42:02;23.10;1.00
1592;DHT22;789;51.612;7.510;2022-08-25T03:44:29;23.10;1.00
1592;DHT22;789;51.612;7.510;2022-08-25T03:46:56;23.10;1.00
1592;DHT22;789;51.612;7.510;2022-08-25T03:49:23;23.00;1.00
1592;DHT22;789;51.612;7.510;2022-08-25T03:51:53;23.00;1.00
1592;DHT22;789;51.612;7.510;2022-08-25T03:54:22;23.00;1.00
1592;DHT22;789;51.612;7.510;2022-08-25T03:56:50;23.00;1.00
1592;DHT22;789;51.612;7.510;2022-08-25T03:59:16;22.90;1.00
1592;DHT22;789;51.612;7.510;2022-08-25T04:01:44;22.90;1.00
1592;DHT22;789;51.612;7.510;2022-08-25T04:04:14;22.90;1.00
1592;DHT22;789;51.612;7.510;2022-08-25T04:06:41;22.80;1.00
1592;DHT22;789;51.612;7.510;2022-08-25T04:09:10;22.80;1.00
1592;DHT22;789;51.612;7.510;2022-08-25T04:11:38;22.80;1.00
1592;DHT22;789;51.612;7.510;2022-08-25T04:14:05;22.80;1.00
1592;DHT22;789;51.612;7.510;2022-08-25T04:16:33;22.70;1.00
1592;DHT22;789;51.612;7.510;2022-08-25T04:19:03;22.70;1.00
1592;DHT22;789;51.612;7.510;2022-08-25T04:21:30;22.70;1.00
1592;DHT22;789;51.612;7.510;2022-08-25T04:23:57;22.60;1.00
1592;DHT22;789;51.612;7.510;2022-08-25T04:26:28;22.60;1.00
1592;DHT22;789;51.612;7.510;2022-08-25T04:28:57;22.60;1.00
1592;DHT22;789;51.612;7.510;2022-08-25T04:31:25;22.60;1.00
1592;DHT22;789;51.612;7.510;2022-08-25T04:33:53;22.50;1.00
1592;DHT22;789;51.612;7.510;2022-08-25T04:36:19;22.50;1.00
1592;DHT22;789;51.612;7.510;2022-08-25T04:38:48;22.50;1.00
1592;DHT22;789;51.612;7.510;2022-08-25T04:41:18;22.40;1.00
1592;DHT22;789;51.612;7.510;2022-08-25T04:43:47;22.40;1.00
1592;DHT22;789;51.612;7.510;2022-08-25T04:46:15;22.40;1.00
1592;DHT22;789;51.612;7.510;2022-08-25T04:48:42;22.40;1.00
1592;DHT22;789;51.612;7.510;2022-08-25T04:51:11;22.30;1.00
1592;DHT22;789;51.612;7.510;2022-08-25T04:53:39;22.30;1.00
1592;DHT22;789;51.612;7.510;2022-08-25T04:56:07;22.20;1.00
1592;DHT22;789;51.612;7.510;2022-08-25T04:58:35;22.20;1.00
1592;DHT22;789;51.612;7.510;2022-08-25T05:01:05;22.10;1.00
1592;DHT22;789;51.612;7.510;2022-08-25T05:03:32;22.10;1.00
1592;DHT22;789;51.612;7.510;2022-08-25T05:05:59;22.00;1.00
1592;DHT22;789;51.612;7.510;2022-08-25T05:08:27;22.00;1.00
1592;DHT22;789;51.612;7.510;2022-08-25T05:10:54;22.00;1.00
1592;DHT22;789;51.612;7.510;2022-08-25T05:13:21;21.90;1.00
1592;DHT22;789;51.612;7.510;2022-08-25T05:15:52;21.90;1.00
1592;DHT22;789;51.612;7.510;2022-08-25T05:18:21;21.90;1.00
1592;DHT22;789;51.612;7.510;2022-08-25T05:20:49;22.00;1.00
1592;DHT22;789;51.612;7.510;2022-08-25T05:23:18;22.00;1.00
1592;DHT22;789;51.612;7.510;2022-08-25T05:25:50;22.00;1.00
1592;DHT22;789;51.612;7.510;2022-08-25T05:28:18;22.10;1.00
1592;DHT22;789;51.612;7.510;2022-08-25T05:30:46;22.20;1.00
1592;DHT22;789;51.612;7.510;2022-08-25T05:33:14;22.30;1.00
1592;DHT22;789;51.612;7.510;2022-08-25T05:35:43;22.30;1.00
1592;DHT22;789;51.612;7.510;2022-08-25T05:38:16;22.40;1.00
1592;DHT22;789;51.612;7.510;2022-08-25T05:40:42;22.50;1.00
1592;DHT22;789;51.612;7.510;2022-08-25T05:43:09;22.50;1.00
1592;DHT22;789;51.612;7.510;2022-08-25T05:45:36;22.60;1.00
1592;DHT22;789;51.612;7.510;2022-08-25T05:48:03;22.60;1.00
1592;DHT22;789;51.612;7.510;2022-08-25T05:50:30;22.60;1.00
1592;DHT22;789;51.612;7.510;2022-08-25T05:52:59;22.70;1.00
1592;DHT22;789;51.612;7.510;2022-08-25T05:55:26;22.80;1.00
1592;DHT22;789;51.612;7.510;2022-08-25T05:57:55;22.90;1.00
1592;DHT22;789;51.612;7.510;2022-08-25T06:00:22;22.90;1.00
1592;DHT22;789;51.612;7.510;2022-08-25T06:02:48;23.00;1.00
1592;DHT22;789;51.612;7.510;2022-08-25T06:05:17;23.30;1.00
1592;DHT22;789;51.612;7.510;2022-08-25T06:07:44;23.50;1.00
1592;DHT22;789;51.612;7.510;2022-08-25T06:10:12;23.80;1.00
1592;DHT22;789;51.612;7.510;2022-08-25T06:12:42;24.00;1.00
1592;DHT22;789;51.612;7.510;2022-08-25T06:15:10;24.30;1.00
1592;DHT22;789;51.612;7.510;2022-08-25T06:17:37;24.50;1.00
1592;DHT22;789;51.612;7.510;2022-08-25T06:20:06;24.80;1.00
1592;DHT22;789;51.612;7.510;2022-08-25T06:22:33;25.00;1.00
1592;DHT22;789;51.612;7.510;2022-08-25T06:25:00;25.20;1.00
1592;DHT22;789;51.612;7.510;2022-08-25T06:27:28;25.40;1.00
1592;DHT22;789;51.612;7.510;2022-08-25T06:30:08;25.50;1.00
1592;DHT22;789;51.612;7.510;2022-08-25T06:32:38;25.70;1.00
1592;DHT22;789;51.612;7.510;2022-08-25T06:35:07;25.80;1.00
1592;DHT22;789;51.612;7.510;2022-08-25T06:37:35;26.00;1.00
1592;DHT22;789;51.612;7.510;2022-08-25T06:40:05;26.20;1.00
1592;DHT22;789;51.612;7.510;2022-08-25T06:42:34;26.30;1.00
1592;DHT22;789;51.612;7.510;2022-08-25T06:45:10;26.50;1.00
1592;DHT22;789;51.612;7.510;2022-08-25T06:47:37;26.70;1.00
1592;DHT22;789;51.612;7.510;2022-08-25T06:50:06;27.00;1.00
1592;DHT22;789;51.612;7.510;2022-08-25T06:52:44;27.20;1.00
1592;DHT22;789;51.612;7.510;2022-08-25T06:55:10;27.40;1.00
1592;DHT22;789;51.612;7.510;2022-08-25T06:57:39;27.40;1.00
1592;DHT22;789;51.612;7.510;2022-08-25T07:00:06;27.40;1.00
1592;DHT22;789;51.612;7.510;2022-08-25T07:02:35;27.50;1.00
1592;DHT22;789;51.612;7.510;2022-08-25T07:05:03;27.50;1.00
1592;DHT22;789;51.612;7.510;2022-08-25T07:07:30;27.60;1.00
1592;DHT22;789;51.612;7.510;2022-08-25T07:09:56;27.80;1.00
1592;DHT22;789;51.612;7.510;2022-08-25T07:12:23;27.80;1.00
1592;DHT22;789;51.612;7.510;2022-08-25T07:14:53;28.00;1.00
1592;DHT22;789;51.612;7.510;2022-08-25T07:17:20;28.10;1.00
1592;DHT22;789;51.612;7.510;2022-08-25T07:19:48;28.40;1.00
1592;DHT22;789;51.612;7.510;2022-08-25T07:22:14;28.60;1.00
1592;DHT22;789;51.612;7.510;2022-08-25T07:24:41;28.90;1.00
1592;DHT22;789;51.612;7.510;2022-08-25T07:27:08;29.20;1.00
1592;DHT22;789;51.612;7.510;2022-08-25T07:29:35;29.80;1.00
1592;DHT22;789;51.612;7.510;2022-08-25T07:32:05;30.40;1.00
1592;DHT22;789;51.612;7.510;2022-08-25T07:34:32;31.00;1.00
1592;DHT22;789;51.612;7.510;2022-08-25T07:37:17;31.70;1.00
1592;DHT22;789;51.612;7.510;2022-08-25T07:39:44;32.50;1.00
1592;DHT22;789;51.612;7.510;2022-08-25T07:42:11;33.00;1.00
1592;DHT22;789;51.612;7.510;2022-08-25T07:44:38;33.50;1.00
1592;DHT22;789;51.612;7.510;2022-08-25T07:47:06;34.30;1.00
1592;DHT22;789;51.612;7.510;2022-08-25T07:49:33;35.10;1.00
1592;DHT22;789;51.612;7.510;2022-08-25T07:52:00;36.00;1.00
1592;DHT22;789;51.612;7.510;2022-08-25T07:54:26;36.70;1.00
1592;DHT22;789;51.612;7.510;2022-08-25T07:56:53;37.50;1.00
1592;DHT22;789;51.612;7.510;2022-08-25T07:59:20;38.30;1.00
1592;DHT22;789;51.612;7.510;2022-08-25T08:01:47;39.00;1.00
1592;DHT22;789;51.612;7.510;2022-08-25T08:04:15;39.70;1.00
1592;DHT22;789;51.612;7.510;2022-08-25T08:06:42;40.50;1.00
1592;DHT22;789;51.612;7.510;2022-08-25T08:09:08;41.20;1.00
1592;DHT22;789;51.612;7.510;2022-08-25T08:11:38;41.80;1.00
1592;DHT22;789;51.612;7.510;2022-08-25T08:14:10;42.40;1.00
1592;DHT22;789;51.612;7.510;2022-08-25T08:16:37;42.90;1.00
1592;DHT22;789;51.612;7.510;2022-08-25T08:19:05;43.30;1.00
1592;DHT22;789;51.612;7.510;2022-08-25T08:21:34;43.90;1.00
1592;DHT22;789;51.612;7.510;2022-08-25T08:24:01;44.30;1.00
1592;DHT22;789;51.612;7.510;2022-08-25T08:26:29;44.40;1.00
1592;DHT22;789;51.612;7.510;2022-08-25T08:28:55;44.80;1.00
1592;DHT22;789;51.612;7.510;2022-08-25T08:31:23;45.20;1.00
1592;DHT22;789;51.612;7.510;2022-08-25T08:33:52;45.80;1.00
1592;DHT22;789;51.612;7.510;2022-08-25T08:36:19;46.10;1.00
1592;DHT22;789;51.612;7.510;2022-08-25T08:38:48;46.30;1.00
1592;DHT22;789;51.612;7.510;2022-08-25T08:41:37;46.70;1.00
1592;DHT22;789;51.612;7.510;2022-08-25T08:44:29;47.10;1.00
1592;DHT22;789;51.612;7.510;2022-08-25T08:47:03;47.50;1.00
1592;DHT22;789;51.612;7.510;2022-08-25T08:49:36;47.60;1.00
1592;DHT22;789;51.612;7.510;2022-08-25T08:52:08;47.50;1.00
1592;DHT22;789;51.612;7.510;2022-08-25T08:54:37;47.70;1.00
1592;DHT22;789;51.612;7.510;2022-08-25T08:57:09;48.20;1.00
1592;DHT22;789;51.612;7.510;2022-08-25T08:59:45;48.40;1.00
1592;DHT22;789;51.612;7.510;2022-08-25T09:02:18;48.60;1.00
1592;DHT22;789;51.612;7.510;2022-08-25T09:04:52;48.50;1.00
1592;DHT22;789;51.612;7.510;2022-08-25T09:07:23;48.30;1.00
1592;DHT22;789;51.612;7.510;2022-08-25T09:09:53;48.30;1.00
1592;DHT22;789;51.612;7.510;2022-08-25T09:12:28;48.50;1.00
1592;DHT22;789;51.612;7.510;2022-08-25T09:15:06;48.80;1.00
1592;DHT22;789;51.612;7.510;2022-08-25T09:17:55;49.40;1.00
1592;DHT22;789;51.612;7.510;2022-08-25T09:20:49;49.60;1.00
1592;DHT22;789;51.612;7.510;2022-08-25T09:23:28;49.00;1.00
1592;DHT22;789;51.612;7.510;2022-08-25T09:26:09;48.90;1.00
1592;DHT22;789;51.612;7.510;2022-08-25T09:28:46;48.50;1.00
1592;DHT22;789;51.612;7.510;2022-08-25T09:31:18;48.30;1.00
1592;DHT22;789;51.612;7.510;2022-08-25T09:33:45;48.00;1.00
1592;DHT22;789;51.612;7.510;2022-08-25T09:36:11;48.10;1.00
1592;DHT22;789;51.612;7.510;2022-08-25T09:38:39;48.30;1.00
1592;DHT22;789;51.612;7.510;2022-08-25T09:41:07;48.50;1.00
1592;DHT22;789;51.612;7.510;2022-08-25T09:43:38;48.90;1.00
1592;DHT22;789;51.612;7.510;2022-08-25T09:46:10;49.20;1.00
1592;DHT22;789;51.612;7.510;2022-08-25T09:48:43;49.30;1.00
1592;DHT22;789;51.612;7.510;2022-08-25T09:51:17;49.30;1.00
1592;DHT22;789;51.612;7.510;2022-08-25T09:53:51;49.60;1.00
1592;DHT22;789;51.612;7.510;2022-08-25T09:56:21;50.10;1.00
1592;DHT22;789;51.612;7.510;2022-08-25T09:58:49;50.20;1.00
1592;DHT22;789;51.612;7.510;2022-08-25T10:01:18;49.60;1.00
1592;DHT22;789;51.612;7.510;2022-08-25T10:03:57;50.00;1.00
1592;DHT22;789;51.612;7.510;2022-08-25T10:06:26;50.30;1.00
1592;DHT22;789;51.612;7.510;2022-08-25T10:08:57;50.20;1.00
1592;DHT22;789;51.612;7.510;2022-08-25T10:11:33;50.20;1.00
1592;DHT22;789;51.612;7.510;2022-08-25T10:14:07;50.20;1.00
1592;DHT22;789;51.612;7.510;2022-08-25T10:16:41;50.10;1.00
1592;DHT22;789;51.612;7.510;2022-08-25T10:19:13;50.40;1.00
1592;DHT22;789;51.612;7.510;2022-08-25T10:22:03;51.10;1.00
1592;DHT22;789;51.612;7.510;2022-08-25T10:24:30;51.20;1.00
1592;DHT22;789;51.612;7.510;2022-08-25T10:27:05;50.90;1.00
1592;DHT22;789;51.612;7.510;2022-08-25T10:30:07;50.70;1.00
1592;DHT22;789;51.612;7.510;2022-08-25T10:32:48;50.90;1.00
1592;DHT22;789;51.612;7.510;2022-08-25T10:35:21;51.30;1.00
1592;DHT22;789;51.612;7.510;2022-08-25T10:37:59;51.10;1.00
1592;DHT22;789;51.612;7.510;2022-08-25T10:40:32;50.90;1.00
1592;DHT22;789;51.612;7.510;2022-08-25T10:43:05;50.80;1.00
1592;DHT22;789;51.612;7.510;2022-08-25T10:45:36;51.00;1.00
1592;DHT22;789;51.612;7.510;2022-08-25T10:48:33;51.50;1.00
1592;DHT22;789;51.612;7.510;2022-08-25T10:51:11;51.90;1.00
1592;DHT22;789;51.612;7.510;2022-08-25T10:53:49;51.80;1.00
1592;DHT22;789;51.612;7.510;2022-08-25T10:56:24;51.50;1.00
1592;DHT22;789;51.612;7.510;2022-08-25T10:59:27;51.50;1.00
1592;DHT22;789;51.612;7.510;2022-08-25T11:02:18;51.80;1.00
1592;DHT22;789;51.612;7.510;2022-08-25T11:04:54;52.30;1.00
1592;DHT22;789;51.612;7.510;2022-08-25T11:07:24;52.70;1.00
1592;DHT22;789;51.612;7.510;2022-08-25T11:09:58;53.10;1.00
1592;DHT22;789;51.612;7.510;2022-08-25T11:12:30;53.60;1.00
1592;DHT22;789;51.612;7.510;2022-08-25T11:15:02;53.40;1.00
1592;DHT22;789;51.612;7.510;2022-08-25T11:17:39;53.00;1.00
1592;DHT22;789;51.612;7.510;2022-08-25T11:20:14;51.90;1.00
1592;DHT22;789;51.612;7.510;2022-08-25T11:22:45;50.90;1.00
1592;DHT22;789;51.612;7.510;2022-08-25T11:25:16;49.90;1.00
1592;DHT22;789;51.612;7.510;2022-08-25T11:27:47;49.80;1.00
1592;DHT22;789;51.612;7.510;2022-08-25T11:30:23;49.90;1.00
1592;DHT22;789;51.612;7.510;2022-08-25T11:32:51;50.40;1.00
1592;DHT22;789;51.612;7.510;2022-08-25T11:35:26;49.70;1.00
1592;DHT22;789;51.612;7.510;2022-08-25T11:38:06;49.10;1.00
1592;DHT22;789;51.612;7.510;2022-08-25T11:40:46;49.40;1.00
1592;DHT22;789;51.612;7.510;2022-08-25T11:46:24;50.20;1.00
1592;DHT22;789;51.612;7.510;2022-08-25T11:48:59;50.40;1.00
1592;DHT22;789;51.612;7.510;2022-08-25T11:51:31;50.80;1.00
1592;DHT22;789;51.612;7.510;2022-08-25T11:54:15;50.40;1.00
1592;DHT22;789;51.612;7.510;2022-08-25T11:56:54;49.50;1.00
1592;DHT22;789;51.612;7.510;2022-08-25T12:02:36;47.00;1.00
1592;DHT22;789;51.612;7.510;2022-08-25T12:05:05;45.80;1.00
1592;DHT22;789;51.612;7.510;2022-08-25T12:07:59;45.00;1.00
1592;DHT22;789;51.612;7.510;2022-08-25T12:10:58;43.60;1.00
1592;DHT22;789;51.612;7.510;2022-08-25T12:13:45;42.00;1.00
1592;DHT22;789;51.612;7.510;2022-08-25T12:16:37;40.50;1.00
1592;DHT22;789;51.612;7.510;2022-08-25T12:19:25;39.40;1.00
1592;DHT22;789;51.612;7.510;2022-08-25T12:21:55;38.50;1.00
1592;DHT22;789;51.612;7.510;2022-08-25T12:24:42;37.70;1.00
1592;DHT22;789;51.612;7.510;2022-08-25T12:27:21;36.60;1.00
1592;DHT22;789;51.612;7.510;2022-08-25T12:29:53;36.00;1.00
1592;DHT22;789;51.612;7.510;2022-08-25T12:32:48;35.60;1.00
1592;DHT22;789;51.612;7.510;2022-08-25T12:35:36;35.30;1.00
1592;DHT22;789;51.612;7.510;2022-08-25T12:38:10;35.10;1.00
1592;DHT22;789;51.612;7.510;2022-08-25T12:40:55;34.80;1.00
1592;DHT22;789;51.612;7.510;2022-08-25T12:43:25;34.60;1.00
1592;DHT22;789;51.612;7.510;2022-08-25T12:46:30;34.50;1.00
1592;DHT22;789;51.612;7.510;2022-08-25T12:48:53;34.30;1.00
1592;DHT22;789;51.612;7.510;2022-08-25T12:51:24;34.10;1.00
1592;DHT22;789;51.612;7.510;2022-08-25T12:53:53;34.10;1.00
1592;DHT22;789;51.612;7.510;2022-08-25T12:56:27;34.00;1.00
1592;DHT22;789;51.612;7.510;2022-08-25T12:59:06;34.00;1.00
1592;DHT22;789;51.612;7.510;2022-08-25T13:01:45;34.00;1.00
1592;DHT22;789;51.612;7.510;2022-08-25T13:07:50;33.90;1.00
1592;DHT22;789;51.612;7.510;2022-08-25T13:10:32;33.80;1.00
1592;DHT22;789;51.612;7.510;2022-08-25T13:13:05;33.80;1.00
1592;DHT22;789;51.612;7.510;2022-08-25T13:15:38;33.80;1.00
1592;DHT22;789;51.612;7.510;2022-08-25T13:18:18;33.80;1.00
1592;DHT22;789;51.612;7.510;2022-08-25T13:20:45;33.80;1.00
1592;DHT22;789;51.612;7.510;2022-08-25T13:23:16;33.80;1.00
1592;DHT22;789;51.612;7.510;2022-08-25T13:25:48;33.70;1.00
1592;DHT22;789;51.612;7.510;2022-08-25T13:28:27;33.70;1.00
1592;DHT22;789;51.612;7.510;2022-08-25T13:31:13;33.60;1.00
1592;DHT22;789;51.612;7.510;2022-08-25T13:33:50;33.50;1.00
1592;DHT22;789;51.612;7.510;2022-08-25T13:36:17;33.50;1.00
1592;DHT22;789;51.612;7.510;2022-08-25T13:39:21;33.50;1.00
1592;DHT22;789;51.612;7.510;2022-08-25T13:41:51;33.40;1.00
1592;DHT22;789;51.612;7.510;2022-08-25T13:44:22;33.40;1.00
1592;DHT22;789;51.612;7.510;2022-08-25T13:47:05;33.40;1.00
1592;DHT22;789;51.612;7.510;2022-08-25T13:49:32;33.40;1.00
1592;DHT22;789;51.612;7.510;2022-08-25T13:51:58;33.50;1.00
1592;DHT22;789;51.612;7.510;2022-08-25T13:54:29;33.40;1.00
1592;DHT22;789;51.612;7.510;2022-08-25T13:57:05;33.50;1.00
1592;DHT22;789;51.612;7.510;2022-08-25T13:59:37;33.50;1.00
1592;DHT22;789;51.612;7.510;2022-08-25T14:02:08;33.50;1.00
1592;DHT22;789;51.612;7.510;2022-08-25T14:04:45;33.50;1.00
1592;DHT22;789;51.612;7.510;2022-08-25T14:07:27;33.60;1.00
1592;DHT22;789;51.612;7.510;2022-08-25T14:09:59;33.60;1.00
1592;DHT22;789;51.612;7.510;2022-08-25T14:12:32;33.70;1.00
1592;DHT22;789;51.612;7.510;2022-08-25T14:15:06;33.60;1.00
1592;DHT22;789;51.612;7.510;2022-08-25T14:17:36;33.60;1.00
1592;DHT22;789;51.612;7.510;2022-08-25T14:20:04;33.60;1.00
1592;DHT22;789;51.612;7.510;2022-08-25T14:22:33;33.50;1.00
1592;DHT22;789;51.612;7.510;2022-08-25T14:25:01;33.50;1.00
1592;DHT22;789;51.612;7.510;2022-08-25T14:27:29;33.50;1.00
1592;DHT22;789;51.612;7.510;2022-08-25T14:29:56;33.50;1.00
1592;DHT22;789;51.612;7.510;2022-08-25T14:32:23;33.50;1.00
1592;DHT22;789;51.612;7.510;2022-08-25T14:34:53;33.50;1.00
1592;DHT22;789;51.612;7.510;2022-08-25T14:37:22;33.50;1.00
1592;DHT22;789;51.612;7.510;2022-08-25T14:39:52;33.50;1.00
1592;DHT22;789;51.612;7.510;2022-08-25T14:42:20;33.50;1.00
1592;DHT22;789;51.612;7.510;2022-08-25T14:44:50;33.50;1.00
1592;DHT22;789;51.612;7.510;2022-08-25T14:47:17;33.50;1.00
1592;DHT22;789;51.612;7.510;2022-08-25T14:49:45;33.50;1.00
1592;DHT22;789;51.612;7.510;2022-08-25T14:52:17;33.60;1.00
1592;DHT22;789;51.612;7.510;2022-08-25T14:54:45;33.60;1.00
1592;DHT22;789;51.612;7.510;2022-08-25T14:57:12;33.60;1.00
1592;DHT22;789;51.612;7.510;2022-08-25T14:59:40;33.50;1.00
1592;DHT22;789;51.612;7.510;2022-08-25T15:02:07;33.40;1.00
1592;DHT22;789;51.612;7.510;2022-08-25T15:04:34;33.40;1.00
1592;DHT22;789;51.612;7.510;2022-08-25T15:07:02;33.40;1.00
1592;DHT22;789;51.612;7.510;2022-08-25T15:09:49;33.40;1.00
1592;DHT22;789;51.612;7.510;2022-08-25T15:12:15;33.50;1.00
1592;DHT22;789;51.612;7.510;2022-08-25T15:14:43;33.60;1.00
1592;DHT22;789;51.612;7.510;2022-08-25T15:17:10;33.60;1.00
1592;DHT22;789;51.612;7.510;2022-08-25T15:19:37;33.60;1.00
1592;DHT22;789;51.612;7.510;2022-08-25T15:22:04;33.60;1.00
1592;DHT22;789;51.612;7.510;2022-08-25T15:24:30;33.60;1.00
1592;DHT22;789;51.612;7.510;2022-08-25T15:27:01;33.60;1.00
1592;DHT22;789;51.612;7.510;2022-08-25T15:29:31;33.60;1.00
1592;DHT22;789;51.612;7.510;2022-08-25T15:32:02;33.70;1.00
1592;DHT22;789;51.612;7.510;2022-08-25T15:34:31;33.70;1.00
1592;DHT22;789;51.612;7.510;2022-08-25T15:36:59;33.60;1.00
1592;DHT22;789;51.612;7.510;2022-08-25T15:39:30;33.60;1.00
1592;DHT22;789;51.612;7.510;2022-08-25T15:41:57;33.60;1.00
1592;DHT22;789;51.612;7.510;2022-08-25T15:44:24;33.50;1.00
1592;DHT22;789;51.612;7.510;2022-08-25T15:46:52;33.40;1.00
1592;DHT22;789;51.612;7.510;2022-08-25T15:49:20;33.30;1.00
1592;DHT22;789;51.612;7.510;2022-08-25T15:51:47;33.20;1.00
1592;DHT22;789;51.612;7.510;2022-08-25T15:54:13;33.20;1.00
1592;DHT22;789;51.612;7.510;2022-08-25T15:56:40;33.20;1.00
1592;DHT22;789;51.612;7.510;2022-08-25T15:59:08;33.10;1.00
1592;DHT22;789;51.612;7.510;2022-08-25T16:01:34;33.10;1.00
1592;DHT22;789;51.612;7.510;2022-08-25T16:04:02;32.90;1.00
1592;DHT22;789;51.612;7.510;2022-08-25T16:06:30;32.90;1.00
1592;DHT22;789;51.612;7.510;2022-08-25T16:08:57;32.80;1.00
1592;DHT22;789;51.612;7.510;2022-08-25T16:11:26;32.80;1.00
1592;DHT22;789;51.612;7.510;2022-08-25T16:13:56;32.80;1.00
1592;DHT22;789;51.612;7.510;2022-08-25T16:16:27;32.80;1.00
1592;DHT22;789;51.612;7.510;2022-08-25T16:18:54;32.80;1.00
1592;DHT22;789;51.612;7.510;2022-08-25T16:21:25;32.80;1.00
1592;DHT22;789;51.612;7.510;2022-08-25T16:23:54;32.80;1.00
1592;DHT22;789;51.612;7.510;2022-08-25T16:26:22;32.90;1.00
1592;DHT22;789;51.612;7.510;2022-08-25T16:28:49;32.90;1.00
1592;DHT22;789;51.612;7.510;2022-08-25T16:31:16;33.00;1.00
1592;DHT22;789;51.612;7.510;2022-08-25T16:33:43;32.90;1.00
1592;DHT22;789;51.612;7.510;2022-08-25T16:36:12;32.80;1.00
1592;DHT22;789;51.612;7.510;2022-08-25T16:38:40;32.80;1.00
1592;DHT22;789;51.612;7.510;2022-08-25T16:41:10;32.70;1.00
1592;DHT22;789;51.612;7.510;2022-08-25T16:43:38;32.70;1.00
1592;DHT22;789;51.612;7.510;2022-08-25T16:46:07;32.70;1.00
1592;DHT22;789;51.612;7.510;2022-08-25T16:48:35;32.70;1.00
1592;DHT22;789;51.612;7.510;2022-08-25T16:51:05;32.70;1.00
1592;DHT22;789;51.612;7.510;2022-08-25T16:53:32;32.70;1.00
1592;DHT22;789;51.612;7.510;2022-08-25T16:56:17;32.60;1.00
1592;DHT22;789;51.612;7.510;2022-08-25T16:58:49;32.60;1.00
1592;DHT22;789;51.612;7.510;2022-08-25T17:01:16;32.60;1.00
1592;DHT22;789;51.612;7.510;2022-08-25T17:03:43;32.60;1.00
1592;DHT22;789;51.612;7.510;2022-08-25T17:06:10;32.60;1.00
1592;DHT22;789;51.612;7.510;2022-08-25T17:08:39;32.60;1.00